METAR Data
IDs: Format: Raw Decoded Include TAF

Data at: 2257 UTC 23 Oct 2019

METAR for:WSSL (Singapore/Seletar Ar, --, SR)
Text:WSSL 232200Z 34002KT 6000 FEW018 BKN300 26/24 Q1007
Temperature: 26.0°C ( 79°F)
Dewpoint: 24.0°C ( 75°F) [RH = 89%]
Pressure (altimeter):29.73 inches Hg (1007.0 mb)
Winds:from the NNW (340 degrees) at 2 MPH (2 knots; 1.0 m/s)
Visibility: 4 sm ( 6 km)
Ceiling:30000 feet AGL
Clouds: few clouds at 1800 feet AGL, broken clouds at 30000 feet AGL

TAF for:WSSL (Singapore/Seletar Ar, --, SR) issued at 1700 UTC 23 Oct 2019
Text:TAF WSSL 231700Z 2318/2500 14007KT 9999 FEW015 SCT020
Forecast period:1800 UTC 23 October 2019 to 0000 UTC 25 October 2019
Forecast type:FROM: standard forecast or significant change
Winds:from the SE (140 degrees) at 8 MPH (7 knots; 3.6 m/s)
Visibility:6 or more sm (10+ km)
Ceiling:at least 12,000 feet AGL
Clouds: few clouds at 1500 feet AGL, scattered clouds at 2000 feet AGL
Text:TEMPO 2405/2409 3000 TSRA FEW012CB BKN015
Forecast period:0500 to 0900 UTC 24 October 2019
Forecast type:TEMPORARY: The following changes expected for less than half the time period
Visibility: 1.86 sm ( 2.99 km)
Ceiling:1500 feet AGL
Clouds: few clouds at 1200 feet AGL, broken clouds at 1500 feet AGL
Weather:TSRA (rain associated with thunderstorm(s))